sensor_id;sensor_type;location;lat;lon;timestamp;pressure;altitude;pressure_sealevel;temperature;humidity
56420;BME280;42323;52.170;7.538;2022-10-16T00:00:52;100684.41;;;11.73;100.00
56420;BME280;42323;52.170;7.538;2022-10-16T00:03:23;100688.06;;;11.72;100.00
56420;BME280;42323;52.170;7.538;2022-10-16T00:06:10;100634.72;;;11.40;100.00
56420;BME280;42323;52.170;7.538;2022-10-16T00:08:41;100671.72;;;11.59;100.00
56420;BME280;42323;52.170;7.538;2022-10-16T00:11:28;100681.41;;;11.68;100.00
56420;BME280;42323;52.170;7.538;2022-10-16T00:14:06;100676.22;;;11.58;100.00
56420;BME280;42323;52.170;7.538;2022-10-16T00:16:57;100641.88;;;11.39;100.00
56420;BME280;42323;52.170;7.538;2022-10-16T00:19:24;100667.03;;;11.53;100.00
56420;BME280;42323;52.170;7.538;2022-10-16T00:21:57;100684.88;;;11.60;100.00
56420;BME280;42323;52.170;7.538;2022-10-16T00:24:38;100656.34;;;11.45;100.00
56420;BME280;42323;52.170;7.538;2022-10-16T00:27:13;100654.00;;;11.42;100.00
56420;BME280;42323;52.170;7.538;2022-10-16T00:29:42;100673.31;;;11.44;100.00
56420;BME280;42323;52.170;7.538;2022-10-16T00:32:20;100695.31;;;11.54;100.00
56420;BME280;42323;52.170;7.538;2022-10-16T00:34:47;100676.00;;;11.44;100.00
56420;BME280;42323;52.170;7.538;2022-10-16T00:37:14;100683.31;;;11.50;100.00
56420;BME280;42323;52.170;7.538;2022-10-16T00:39:42;100669.16;;;11.41;100.00
56420;BME280;42323;52.170;7.538;2022-10-16T00:42:16;100691.97;;;11.52;100.00
56420;BME280;42323;52.170;7.538;2022-10-16T00:44:50;100693.13;;;11.49;100.00
56420;BME280;42323;52.170;7.538;2022-10-16T00:47:27;100692.81;;;11.52;100.00
56420;BME280;42323;52.170;7.538;2022-10-16T00:50:16;100694.69;;;11.60;100.00
56420;BME280;42323;52.170;7.538;2022-10-16T00:52:52;100701.19;;;11.57;100.00
56420;BME280;42323;52.170;7.538;2022-10-16T00:55:24;100680.31;;;11.45;100.00
56420;BME280;42323;52.170;7.538;2022-10-16T00:58:00;100686.03;;;11.58;100.00
56420;BME280;42323;52.170;7.538;2022-10-16T01:00:30;100687.19;;;11.55;100.00
56420;BME280;42323;52.170;7.538;2022-10-16T01:03:35;100686.66;;;11.52;100.00
56420;BME280;42323;52.170;7.538;2022-10-16T01:09:22;100686.81;;;11.50;100.00
56420;BME280;42323;52.170;7.538;2022-10-16T01:12:20;100686.97;;;11.49;100.00
56420;BME280;42323;52.170;7.538;2022-10-16T01:14:53;100688.50;;;11.51;100.00
56420;BME280;42323;52.170;7.538;2022-10-16T01:20:29;100678.66;;;11.44;100.00
56420;BME280;42323;52.170;7.538;2022-10-16T01:23:36;100695.66;;;11.51;100.00
56420;BME280;42323;52.170;7.538;2022-10-16T01:26:25;100663.25;;;11.21;100.00
56420;BME280;42323;52.170;7.538;2022-10-16T01:29:41;100698.16;;;11.52;100.00
56420;BME280;42323;52.170;7.538;2022-10-16T01:35:23;100690.31;;;11.51;100.00
56420;BME280;42323;52.170;7.538;2022-10-16T01:40:46;100701.28;;;11.48;100.00
56420;BME280;42323;52.170;7.538;2022-10-16T01:43:19;100692.78;;;11.44;100.00
56420;BME280;42323;52.170;7.538;2022-10-16T01:45:47;100695.81;;;11.49;100.00
56420;BME280;42323;52.170;7.538;2022-10-16T01:48:21;100696.63;;;11.50;100.00
56420;BME280;42323;52.170;7.538;2022-10-16T01:51:13;100696.81;;;11.48;100.00
56420;BME280;42323;52.170;7.538;2022-10-16T01:53:52;100670.41;;;11.29;100.00
56420;BME280;42323;52.170;7.538;2022-10-16T01:56:27;100703.59;;;11.43;100.00
56420;BME280;42323;52.170;7.538;2022-10-16T01:59:18;100649.25;;;11.19;100.00
56420;BME280;42323;52.170;7.538;2022-10-16T02:02:06;100699.81;;;11.53;100.00
56420;BME280;42323;52.170;7.538;2022-10-16T02:05:07;100706.28;;;11.51;100.00
56420;BME280;42323;52.170;7.538;2022-10-16T02:07:39;100702.44;;;11.45;100.00
56420;BME280;42323;52.170;7.538;2022-10-16T02:10:27;100679.56;;;11.26;100.00
56420;BME280;42323;52.170;7.538;2022-10-16T02:13:17;100708.94;;;11.43;100.00
56420;BME280;42323;52.170;7.538;2022-10-16T02:15:53;100704.59;;;11.42;100.00
56420;BME280;42323;52.170;7.538;2022-10-16T02:18:23;100657.56;;;11.16;100.00
56420;BME280;42323;52.170;7.538;2022-10-16T02:21:22;100712.28;;;11.45;100.00
56420;BME280;42323;52.170;7.538;2022-10-16T02:24:02;100716.44;;;11.47;100.00
56420;BME280;42323;52.170;7.538;2022-10-16T02:26:57;100654.59;;;11.19;100.00
56420;BME280;42323;52.170;7.538;2022-10-16T02:29:52;100653.88;;;11.09;100.00
56420;BME280;42323;52.170;7.538;2022-10-16T02:32:30;100710.25;;;11.39;100.00
56420;BME280;42323;52.170;7.538;2022-10-16T02:34:59;100693.94;;;11.33;100.00
56420;BME280;42323;52.170;7.538;2022-10-16T02:37:39;100692.78;;;11.36;100.00
56420;BME280;42323;52.170;7.538;2022-10-16T02:40:30;100675.22;;;11.25;100.00
56420;BME280;42323;52.170;7.538;2022-10-16T02:43:07;100665.94;;;11.29;100.00
56420;BME280;42323;52.170;7.538;2022-10-16T02:45:36;100705.97;;;11.54;100.00
56420;BME280;42323;52.170;7.538;2022-10-16T02:48:12;100666.91;;;11.28;100.00
56420;BME280;42323;52.170;7.538;2022-10-16T02:50:42;100694.47;;;11.45;100.00
56420;BME280;42323;52.170;7.538;2022-10-16T02:53:17;100653.94;;;11.25;100.00
56420;BME280;42323;52.170;7.538;2022-10-16T02:55:47;100707.03;;;11.61;100.00
56420;BME280;42323;52.170;7.538;2022-10-16T02:58:28;100678.31;;;11.47;100.00
56420;BME280;42323;52.170;7.538;2022-10-16T03:01:07;100693.53;;;11.54;100.00
56420;BME280;42323;52.170;7.538;2022-10-16T03:03:47;100721.19;;;11.70;100.00
56420;BME280;42323;52.170;7.538;2022-10-16T03:06:40;100695.53;;;11.60;100.00
56420;BME280;42323;52.170;7.538;2022-10-16T03:09:17;100692.19;;;11.58;100.00
56420;BME280;42323;52.170;7.538;2022-10-16T03:11:44;100680.72;;;11.58;100.00
56420;BME280;42323;52.170;7.538;2022-10-16T03:14:15;100674.19;;;11.52;100.00
56420;BME280;42323;52.170;7.538;2022-10-16T03:16:43;100670.38;;;11.55;100.00
56420;BME280;42323;52.170;7.538;2022-10-16T03:19:20;100682.72;;;11.64;100.00
56420;BME280;42323;52.170;7.538;2022-10-16T03:21:53;100713.47;;;11.84;100.00
56420;BME280;42323;52.170;7.538;2022-10-16T03:24:37;100690.38;;;11.67;100.00
56420;BME280;42323;52.170;7.538;2022-10-16T03:27:39;100712.78;;;11.82;100.00
56420;BME280;42323;52.170;7.538;2022-10-16T03:30:10;100705.72;;;11.73;100.00
56420;BME280;42323;52.170;7.538;2022-10-16T03:32:51;100728.41;;;11.77;100.00
56420;BME280;42323;52.170;7.538;2022-10-16T03:35:22;100719.72;;;11.75;100.00
56420;BME280;42323;52.170;7.538;2022-10-16T03:37:51;100736.44;;;11.85;100.00
56420;BME280;42323;52.170;7.538;2022-10-16T03:40:25;100693.72;;;11.61;100.00
56420;BME280;42323;52.170;7.538;2022-10-16T03:42:53;100693.22;;;11.65;100.00
56420;BME280;42323;52.170;7.538;2022-10-16T03:45:40;100670.53;;;11.53;100.00
56420;BME280;42323;52.170;7.538;2022-10-16T03:48:10;100697.38;;;11.68;100.00
56420;BME280;42323;52.170;7.538;2022-10-16T03:50:40;100714.13;;;11.78;100.00
56420;BME280;42323;52.170;7.538;2022-10-16T03:53:12;100715.78;;;11.79;100.00
56420;BME280;42323;52.170;7.538;2022-10-16T03:55:48;100720.28;;;11.79;100.00
56420;BME280;42323;52.170;7.538;2022-10-16T03:58:28;100702.03;;;11.66;100.00
56420;BME280;42323;52.170;7.538;2022-10-16T04:01:18;100682.16;;;11.52;100.00
56420;BME280;42323;52.170;7.538;2022-10-16T04:03:46;100682.31;;;11.51;100.00
56420;BME280;42323;52.170;7.538;2022-10-16T04:06:16;100705.03;;;11.63;100.00
56420;BME280;42323;52.170;7.538;2022-10-16T04:08:52;100727.44;;;11.78;100.00
56420;BME280;42323;52.170;7.538;2022-10-16T04:11:37;100670.34;;;11.47;100.00
56420;BME280;42323;52.170;7.538;2022-10-16T04:14:08;100707.19;;;11.68;100.00
56420;BME280;42323;52.170;7.538;2022-10-16T04:16:36;100711.34;;;11.62;100.00
56420;BME280;42323;52.170;7.538;2022-10-16T04:19:28;100707.34;;;11.58;100.00
56420;BME280;42323;52.170;7.538;2022-10-16T04:22:16;100709.63;;;11.53;100.00
56420;BME280;42323;52.170;7.538;2022-10-16T04:24:46;100752.50;;;11.76;100.00
56420;BME280;42323;52.170;7.538;2022-10-16T04:27:29;100750.16;;;11.73;100.00
56420;BME280;42323;52.170;7.538;2022-10-16T04:30:10;100748.81;;;11.69;100.00
56420;BME280;42323;52.170;7.538;2022-10-16T04:32:41;100736.16;;;11.62;100.00
56420;BME280;42323;52.170;7.538;2022-10-16T04:35:10;100721.66;;;11.57;100.00
56420;BME280;42323;52.170;7.538;2022-10-16T04:37:45;100746.34;;;11.75;100.00
56420;BME280;42323;52.170;7.538;2022-10-16T04:40:24;100748.66;;;11.70;100.00
56420;BME280;42323;52.170;7.538;2022-10-16T04:42:59;100723.94;;;11.52;100.00
56420;BME280;42323;52.170;7.538;2022-10-16T04:45:27;100704.44;;;11.43;100.00
56420;BME280;42323;52.170;7.538;2022-10-16T04:47:57;100736.47;;;11.59;100.00
56420;BME280;42323;52.170;7.538;2022-10-16T04:50:28;100750.16;;;11.64;100.00
56420;BME280;42323;52.170;7.538;2022-10-16T04:52:59;100751.97;;;11.64;100.00
56420;BME280;42323;52.170;7.538;2022-10-16T04:55:30;100760.16;;;11.71;100.00
56420;BME280;42323;52.170;7.538;2022-10-16T04:57:59;100738.09;;;11.52;100.00
56420;BME280;42323;52.170;7.538;2022-10-16T05:00:27;100769.66;;;11.73;100.00
56420;BME280;42323;52.170;7.538;2022-10-16T05:03:02;100744.16;;;11.62;100.00
56420;BME280;42323;52.170;7.538;2022-10-16T05:05:43;100769.66;;;11.73;100.00
56420;BME280;42323;52.170;7.538;2022-10-16T05:08:15;100758.47;;;11.70;100.00
56420;BME280;42323;52.170;7.538;2022-10-16T05:10:52;100771.97;;;11.68;100.00
56420;BME280;42323;52.170;7.538;2022-10-16T05:13:19;100765.28;;;11.64;100.00
56420;BME280;42323;52.170;7.538;2022-10-16T05:15:47;100755.06;;;11.51;100.00
56420;BME280;42323;52.170;7.538;2022-10-16T05:18:20;100769.78;;;11.63;100.00
56420;BME280;42323;52.170;7.538;2022-10-16T05:20:55;100720.00;;;11.30;100.00
56420;BME280;42323;52.170;7.538;2022-10-16T05:23:24;100761.22;;;11.52;100.00
56420;BME280;42323;52.170;7.538;2022-10-16T05:25:54;100767.22;;;11.54;100.00
56420;BME280;42323;52.170;7.538;2022-10-16T05:28:28;100745.19;;;11.35;100.00
56420;BME280;42323;52.170;7.538;2022-10-16T05:30:57;100764.84;;;11.43;100.00
56420;BME280;42323;52.170;7.538;2022-10-16T05:33:27;100795.91;;;11.60;100.00
56420;BME280;42323;52.170;7.538;2022-10-16T05:35:54;100796.25;;;11.65;100.00
56420;BME280;42323;52.170;7.538;2022-10-16T05:38:21;100801.75;;;11.63;100.00
56420;BME280;42323;52.170;7.538;2022-10-16T05:40:52;100793.25;;;11.60;100.00
56420;BME280;42323;52.170;7.538;2022-10-16T05:43:23;100803.09;;;11.68;100.00
56420;BME280;42323;52.170;7.538;2022-10-16T05:45:55;100793.75;;;11.63;100.00
56420;BME280;42323;52.170;7.538;2022-10-16T05:48:28;100791.50;;;11.51;100.00
56420;BME280;42323;52.170;7.538;2022-10-16T05:51:08;100775.81;;;11.40;100.00
56420;BME280;42323;52.170;7.538;2022-10-16T05:53:40;100797.16;;;11.48;100.00
56420;BME280;42323;52.170;7.538;2022-10-16T05:56:11;100792.63;;;11.40;100.00
56420;BME280;42323;52.170;7.538;2022-10-16T05:58:48;100811.81;;;11.52;100.00
56420;BME280;42323;52.170;7.538;2022-10-16T06:01:31;100784.03;;;11.28;100.00
56420;BME280;42323;52.170;7.538;2022-10-16T06:04:11;100821.47;;;11.53;100.00
56420;BME280;42323;52.170;7.538;2022-10-16T06:06:44;100828.78;;;11.51;100.00
56420;BME280;42323;52.170;7.538;2022-10-16T06:09:45;100836.47;;;11.54;100.00
56420;BME280;42323;52.170;7.538;2022-10-16T06:12:17;100798.88;;;11.31;100.00
56420;BME280;42323;52.170;7.538;2022-10-16T06:15:02;100803.06;;;11.33;100.00
56420;BME280;42323;52.170;7.538;2022-10-16T06:17:29;100834.34;;;11.57;100.00
56420;BME280;42323;52.170;7.538;2022-10-16T06:19:57;100834.34;;;11.57;100.00
56420;BME280;42323;52.170;7.538;2022-10-16T06:22:32;100818.81;;;11.53;100.00
56420;BME280;42323;52.170;7.538;2022-10-16T06:25:00;100823.16;;;11.54;100.00
56420;BME280;42323;52.170;7.538;2022-10-16T06:27:44;100805.63;;;11.43;100.00
56420;BME280;42323;52.170;7.538;2022-10-16T06:30:16;100855.06;;;11.72;100.00
56420;BME280;42323;52.170;7.538;2022-10-16T06:32:43;100820.13;;;11.49;100.00
56420;BME280;42323;52.170;7.538;2022-10-16T06:35:14;100856.00;;;11.80;100.00
56420;BME280;42323;52.170;7.538;2022-10-16T06:37:58;100869.34;;;11.88;100.00
56420;BME280;42323;52.170;7.538;2022-10-16T06:40:34;100876.19;;;11.91;100.00
56420;BME280;42323;52.170;7.538;2022-10-16T06:43:01;100856.81;;;11.81;100.00
56420;BME280;42323;52.170;7.538;2022-10-16T06:45:37;100871.69;;;11.91;100.00
56420;BME280;42323;52.170;7.538;2022-10-16T06:48:14;100877.91;;;12.00;100.00
56420;BME280;42323;52.170;7.538;2022-10-16T06:50:41;100871.75;;;12.00;100.00
56420;BME280;42323;52.170;7.538;2022-10-16T06:53:10;100879.78;;;12.08;100.00
56420;BME280;42323;52.170;7.538;2022-10-16T06:55:41;100892.09;;;12.09;100.00
56420;BME280;42323;52.170;7.538;2022-10-16T06:58:14;100896.13;;;12.13;100.00
56420;BME280;42323;52.170;7.538;2022-10-16T07:00:45;100885.44;;;12.05;100.00
56420;BME280;42323;52.170;7.538;2022-10-16T07:03:24;100898.28;;;12.09;100.00
56420;BME280;42323;52.170;7.538;2022-10-16T07:06:00;100922.13;;;12.19;100.00
56420;BME280;42323;52.170;7.538;2022-10-16T07:08:39;100935.47;;;12.19;100.00
56420;BME280;42323;52.170;7.538;2022-10-16T07:11:08;100937.28;;;12.18;100.00
56420;BME280;42323;52.170;7.538;2022-10-16T07:13:37;100941.19;;;12.24;100.00
56420;BME280;42323;52.170;7.538;2022-10-16T07:16:10;100947.19;;;12.26;100.00
56420;BME280;42323;52.170;7.538;2022-10-16T07:18:39;100939.78;;;12.20;100.00
56420;BME280;42323;52.170;7.538;2022-10-16T07:21:30;100953.34;;;12.26;100.00
56420;BME280;42323;52.170;7.538;2022-10-16T07:23:59;100949.53;;;12.29;100.00
56420;BME280;42323;52.170;7.538;2022-10-16T07:26:30;100955.53;;;12.31;100.00
56420;BME280;42323;52.170;7.538;2022-10-16T07:28:57;100954.25;;;12.43;100.00
56420;BME280;42323;52.170;7.538;2022-10-16T07:31:25;100963.13;;;12.52;100.00
56420;BME280;42323;52.170;7.538;2022-10-16T07:33:53;100964.81;;;12.53;100.00
56420;BME280;42323;52.170;7.538;2022-10-16T07:36:21;100974.66;;;12.61;100.00
56420;BME280;42323;52.170;7.538;2022-10-16T07:38:48;100980.06;;;12.69;100.00
56420;BME280;42323;52.170;7.538;2022-10-16T07:41:24;100986.25;;;12.77;100.00
56420;BME280;42323;52.170;7.538;2022-10-16T07:43:54;100980.94;;;12.85;100.00
56420;BME280;42323;52.170;7.538;2022-10-16T07:46:23;100994.31;;;12.94;100.00
56420;BME280;42323;52.170;7.538;2022-10-16T07:48:50;100999.66;;;13.02;100.00
56420;BME280;42323;52.170;7.538;2022-10-16T07:51:19;100993.66;;;13.08;100.00
56420;BME280;42323;52.170;7.538;2022-10-16T07:53:51;100965.81;;;13.10;100.00
56420;BME280;42323;52.170;7.538;2022-10-16T07:56:22;100977.56;;;13.17;100.00
56420;BME280;42323;52.170;7.538;2022-10-16T07:58:52;100994.59;;;13.33;100.00
56420;BME280;42323;52.170;7.538;2022-10-16T08:01:19;100997.28;;;13.41;100.00
56420;BME280;42323;52.170;7.538;2022-10-16T08:03:49;100989.59;;;13.46;100.00
56420;BME280;42323;52.170;7.538;2022-10-16T08:06:18;100996.44;;;13.57;100.00
56420;BME280;42323;52.170;7.538;2022-10-16T08:08:55;100986.59;;;13.49;100.00
56420;BME280;42323;52.170;7.538;2022-10-16T08:11:23;100999.97;;;13.65;100.00
56420;BME280;42323;52.170;7.538;2022-10-16T08:13:53;101015.66;;;13.68;100.00
56420;BME280;42323;52.170;7.538;2022-10-16T08:16:20;101008.66;;;13.75;100.00
56420;BME280;42323;52.170;7.538;2022-10-16T08:18:51;101007.31;;;13.79;100.00
56420;BME280;42323;52.170;7.538;2022-10-16T08:21:20;101001.66;;;13.83;100.00
56420;BME280;42323;52.170;7.538;2022-10-16T08:23:47;101008.00;;;13.90;100.00
56420;BME280;42323;52.170;7.538;2022-10-16T08:26:22;101013.97;;;14.00;100.00
56420;BME280;42323;52.170;7.538;2022-10-16T08:28:50;101008.28;;;14.03;100.00
56420;BME280;42323;52.170;7.538;2022-10-16T08:31:19;101013.97;;;14.16;100.00
56420;BME280;42323;52.170;7.538;2022-10-16T08:33:46;101019.50;;;14.15;100.00
56420;BME280;42323;52.170;7.538;2022-10-16T08:36:15;101026.31;;;14.25;100.00
56420;BME280;42323;52.170;7.538;2022-10-16T08:38:43;101030.66;;;14.34;100.00
56420;BME280;42323;52.170;7.538;2022-10-16T08:46:58;101028.66;;;14.45;100.00
56420;BME280;42323;52.170;7.538;2022-10-16T08:49:27;101024.44;;;14.42;100.00
56420;BME280;42323;52.170;7.538;2022-10-16T08:51:55;101032.16;;;14.53;100.00
56420;BME280;42323;52.170;7.538;2022-10-16T08:54:30;101035.63;;;14.62;100.00
56420;BME280;42323;52.170;7.538;2022-10-16T08:57:31;101008.25;;;14.52;100.00
56420;BME280;42323;52.170;7.538;2022-10-16T09:00:13;101033.88;;;14.85;100.00
56420;BME280;42323;52.170;7.538;2022-10-16T09:03:06;101036.88;;;14.90;100.00
56420;BME280;42323;52.170;7.538;2022-10-16T09:15:00;101034.75;;;15.17;100.00
56420;BME280;42323;52.170;7.538;2022-10-16T09:22:28;101044.91;;;15.52;100.00
56420;BME280;42323;52.170;7.538;2022-10-16T09:25:11;101047.69;;;15.67;100.00
56420;BME280;42323;52.170;7.538;2022-10-16T09:27:38;101039.47;;;15.69;100.00
56420;BME280;42323;52.170;7.538;2022-10-16T09:30:16;101053.38;;;16.10;100.00
56420;BME280;42323;52.170;7.538;2022-10-16T09:32:45;101057.50;;;16.35;100.00
56420;BME280;42323;52.170;7.538;2022-10-16T09:35:27;101052.91;;;16.59;100.00
56420;BME280;42323;52.170;7.538;2022-10-16T09:37:57;101053.91;;;16.43;100.00
56420;BME280;42323;52.170;7.538;2022-10-16T09:40:36;101069.91;;;16.51;100.00
56420;BME280;42323;52.170;7.538;2022-10-16T09:43:24;101065.16;;;16.76;100.00
56420;BME280;42323;52.170;7.538;2022-10-16T09:45:58;101050.31;;;17.45;100.00
56420;BME280;42323;52.170;7.538;2022-10-16T09:48:44;101049.59;;;17.73;100.00
56420;BME280;42323;52.170;7.538;2022-10-16T09:51:19;101049.16;;;18.19;100.00
56420;BME280;42323;52.170;7.538;2022-10-16T09:53:47;101070.25;;;18.43;100.00
56420;BME280;42323;52.170;7.538;2022-10-16T09:56:43;101060.97;;;18.18;100.00
56420;BME280;42323;52.170;7.538;2022-10-16T09:59:15;101070.13;;;19.27;100.00
56420;BME280;42323;52.170;7.538;2022-10-16T10:01:53;101067.22;;;18.81;100.00
56420;BME280;42323;52.170;7.538;2022-10-16T10:04:23;101061.53;;;19.65;100.00
56420;BME280;42323;52.170;7.538;2022-10-16T10:06:55;101049.94;;;20.30;100.00
56420;BME280;42323;52.170;7.538;2022-10-16T10:09:23;101053.16;;;19.40;100.00
56420;BME280;42323;52.170;7.538;2022-10-16T10:11:52;101053.06;;;20.14;100.00
56420;BME280;42323;52.170;7.538;2022-10-16T10:14:38;101051.00;;;20.49;100.00
56420;BME280;42323;52.170;7.538;2022-10-16T10:19:55;101053.78;;;21.45;100.00
56420;BME280;42323;52.170;7.538;2022-10-16T10:22:30;101072.38;;;21.35;100.00
56420;BME280;42323;52.170;7.538;2022-10-16T10:38:34;101094.47;;;19.47;100.00
56420;BME280;42323;52.170;7.538;2022-10-16T10:49:37;101088.16;;;20.73;100.00
56420;BME280;42323;52.170;7.538;2022-10-16T11:06:05;101075.59;;;21.57;100.00
56420;BME280;42323;52.170;7.538;2022-10-16T11:08:45;101083.81;;;20.53;100.00
56420;BME280;42323;52.170;7.538;2022-10-16T11:11:20;101095.00;;;20.10;100.00
56420;BME280;42323;52.170;7.538;2022-10-16T11:25:21;101106.56;;;19.16;100.00
56420;BME280;42323;52.170;7.538;2022-10-16T11:28:03;101105.41;;;18.91;100.00
56420;BME280;42323;52.170;7.538;2022-10-16T11:40:50;101116.47;;;18.75;100.00
56420;BME280;42323;52.170;7.538;2022-10-16T11:46:22;101111.75;;;18.55;100.00
56420;BME280;42323;52.170;7.538;2022-10-16T11:49:11;101117.31;;;18.75;100.00
56420;BME280;42323;52.170;7.538;2022-10-16T11:52:17;101121.03;;;18.74;100.00
56420;BME280;42323;52.170;7.538;2022-10-16T11:54:51;101119.84;;;19.59;100.00
56420;BME280;42323;52.170;7.538;2022-10-16T11:57:23;101128.75;;;19.18;100.00
56420;BME280;42323;52.170;7.538;2022-10-16T11:59:58;101132.25;;;18.78;100.00
56420;BME280;42323;52.170;7.538;2022-10-16T12:05:33;101132.47;;;18.05;100.00
56420;BME280;42323;52.170;7.538;2022-10-16T12:08:12;101137.28;;;17.89;100.00
56420;BME280;42323;52.170;7.538;2022-10-16T12:10:42;101141.63;;;18.82;100.00
56420;BME280;42323;52.170;7.538;2022-10-16T12:16:26;101136.16;;;20.78;100.00
56420;BME280;42323;52.170;7.538;2022-10-16T12:19:14;101141.22;;;21.84;95.76
56420;BME280;42323;52.170;7.538;2022-10-16T12:21:43;101132.59;;;20.97;100.00
56420;BME280;42323;52.170;7.538;2022-10-16T12:24:41;101130.66;;;21.24;99.86
56420;BME280;42323;52.170;7.538;2022-10-16T12:27:29;101129.66;;;21.12;99.39
56420;BME280;42323;52.170;7.538;2022-10-16T12:29:59;101130.78;;;20.45;100.00
56420;BME280;42323;52.170;7.538;2022-10-16T12:32:37;101147.94;;;19.37;100.00
56420;BME280;42323;52.170;7.538;2022-10-16T12:35:20;101141.97;;;20.75;100.00
56420;BME280;42323;52.170;7.538;2022-10-16T12:37:48;101148.28;;;22.23;95.60
56420;BME280;42323;52.170;7.538;2022-10-16T12:40:36;101157.44;;;22.97;87.67
56420;BME280;42323;52.170;7.538;2022-10-16T12:46:04;101155.78;;;24.29;79.13
56420;BME280;42323;52.170;7.538;2022-10-16T12:48:31;101149.19;;;24.48;78.41
56420;BME280;42323;52.170;7.538;2022-10-16T12:51:35;101144.69;;;24.42;75.98
56420;BME280;42323;52.170;7.538;2022-10-16T12:54:04;101151.75;;;24.31;71.94
56420;BME280;42323;52.170;7.538;2022-10-16T12:56:37;101153.47;;;24.67;71.65
56420;BME280;42323;52.170;7.538;2022-10-16T13:07:48;101172.38;;;25.73;64.81
56420;BME280;42323;52.170;7.538;2022-10-16T13:15:54;101182.41;;;24.85;64.51
56420;BME280;42323;52.170;7.538;2022-10-16T13:18:56;101174.00;;;24.87;63.19
56420;BME280;42323;52.170;7.538;2022-10-16T13:21:54;101175.25;;;22.61;72.89
56420;BME280;42323;52.170;7.538;2022-10-16T13:29:58;101191.47;;;21.66;86.65
56420;BME280;42323;52.170;7.538;2022-10-16T13:32:27;101185.28;;;21.53;92.04
56420;BME280;42323;52.170;7.538;2022-10-16T13:34:54;101189.81;;;21.65;89.99
56420;BME280;42323;52.170;7.538;2022-10-16T13:37:23;101176.91;;;22.62;84.22
56420;BME280;42323;52.170;7.538;2022-10-16T13:39:51;101174.19;;;23.67;79.22
56420;BME280;42323;52.170;7.538;2022-10-16T13:42:28;101177.44;;;24.47;74.92
56420;BME280;42323;52.170;7.538;2022-10-16T13:44:56;101182.91;;;24.94;71.08
56420;BME280;42323;52.170;7.538;2022-10-16T13:47:28;101189.38;;;25.40;69.48
56420;BME280;42323;52.170;7.538;2022-10-16T13:50:13;101191.41;;;24.97;66.88
56420;BME280;42323;52.170;7.538;2022-10-16T13:52:40;101190.56;;;25.32;65.58
56420;BME280;42323;52.170;7.538;2022-10-16T13:55:12;101186.94;;;25.15;64.23
56420;BME280;42323;52.170;7.538;2022-10-16T13:57:40;101196.25;;;24.84;65.75
56420;BME280;42323;52.170;7.538;2022-10-16T14:00:22;101200.97;;;24.88;66.13
56420;BME280;42323;52.170;7.538;2022-10-16T14:02:54;101198.34;;;25.52;64.75
56420;BME280;42323;52.170;7.538;2022-10-16T14:05:22;101197.09;;;25.83;63.41
56420;BME280;42323;52.170;7.538;2022-10-16T14:07:50;101200.69;;;26.00;61.85
56420;BME280;42323;52.170;7.538;2022-10-16T14:10:22;101195.19;;;25.83;62.85
56420;BME280;42323;52.170;7.538;2022-10-16T14:13:04;101193.78;;;24.70;63.71
56420;BME280;42323;52.170;7.538;2022-10-16T14:15:33;101197.34;;;25.06;64.70
56420;BME280;42323;52.170;7.538;2022-10-16T14:18:01;101194.50;;;25.24;66.08
56420;BME280;42323;52.170;7.538;2022-10-16T14:20:31;101194.63;;;25.81;63.80
56420;BME280;42323;52.170;7.538;2022-10-16T14:23:03;101201.72;;;25.82;64.12
56420;BME280;42323;52.170;7.538;2022-10-16T14:25:36;101192.38;;;26.07;62.52
56420;BME280;42323;52.170;7.538;2022-10-16T14:28:14;101200.53;;;26.35;62.07
56420;BME280;42323;52.170;7.538;2022-10-16T14:33:50;101207.91;;;26.51;60.62
56420;BME280;42323;52.170;7.538;2022-10-16T14:36:17;101206.41;;;25.47;61.59
56420;BME280;42323;52.170;7.538;2022-10-16T14:39:06;101199.09;;;26.33;61.51
56420;BME280;42323;52.170;7.538;2022-10-16T14:41:44;101200.56;;;26.07;62.53
56420;BME280;42323;52.170;7.538;2022-10-16T14:44:12;101203.81;;;25.28;63.92
56420;BME280;42323;52.170;7.538;2022-10-16T14:46:41;101216.81;;;25.50;66.15
56420;BME280;42323;52.170;7.538;2022-10-16T14:51:37;101225.31;;;24.48;68.72
56420;BME280;42323;52.170;7.538;2022-10-16T14:54:04;101222.56;;;23.88;71.00
56420;BME280;42323;52.170;7.538;2022-10-16T14:59:16;101230.63;;;22.47;79.93
56420;BME280;42323;52.170;7.538;2022-10-16T15:01:45;101225.91;;;22.36;83.93
56420;BME280;42323;52.170;7.538;2022-10-16T15:04:13;101227.44;;;23.06;82.50
56420;BME280;42323;52.170;7.538;2022-10-16T15:06:40;101222.25;;;24.26;77.07
56420;BME280;42323;52.170;7.538;2022-10-16T15:09:07;101223.72;;;24.29;74.88
56420;BME280;42323;52.170;7.538;2022-10-16T15:11:34;101215.50;;;23.32;75.61
56420;BME280;42323;52.170;7.538;2022-10-16T15:14:02;101231.06;;;23.62;77.25
56420;BME280;42323;52.170;7.538;2022-10-16T15:16:30;101240.31;;;22.61;83.18
56420;BME280;42323;52.170;7.538;2022-10-16T15:18:57;101233.97;;;22.11;87.08
56420;BME280;42323;52.170;7.538;2022-10-16T15:21:29;101231.34;;;21.33;92.19
56420;BME280;42323;52.170;7.538;2022-10-16T15:23:58;101228.44;;;21.01;95.83
56420;BME280;42323;52.170;7.538;2022-10-16T15:26:26;101229.91;;;20.71;99.00
56420;BME280;42323;52.170;7.538;2022-10-16T15:28:53;101240.50;;;20.46;100.00
56420;BME280;42323;52.170;7.538;2022-10-16T15:31:20;101238.34;;;20.35;100.00
56420;BME280;42323;52.170;7.538;2022-10-16T15:33:52;101237.94;;;20.31;100.00
56420;BME280;42323;52.170;7.538;2022-10-16T15:36:28;101236.47;;;20.22;100.00